createdAt,value
2023-05-18T00:00:01.603Z,35.48
2023-05-18T00:01:01.650Z,35.47
2023-05-18T00:02:01.701Z,35.51
2023-05-18T00:03:01.834Z,35.46
2023-05-18T00:04:01.942Z,35.50
2023-05-18T00:05:01.990Z,35.51
2023-05-18T00:06:01.977Z,35.43
2023-05-18T00:07:02.018Z,35.44
2023-05-18T00:08:02.080Z,35.44
2023-05-18T00:09:02.142Z,35.44
2023-05-18T00:10:02.294Z,35.37
2023-05-18T00:11:02.240Z,35.41
2023-05-18T00:12:02.300Z,35.46
2023-05-18T00:13:02.357Z,35.46
2023-05-18T00:14:02.410Z,35.48
2023-05-18T00:15:02.506Z,35.46
2023-05-18T00:16:02.559Z,35.48
2023-05-18T00:17:02.598Z,35.44
2023-05-18T00:18:02.652Z,35.44
2023-05-18T00:19:02.814Z,35.44
2023-05-18T00:20:02.816Z,35.46
2023-05-18T00:21:02.860Z,35.40
2023-05-18T00:22:02.890Z,35.41
2023-05-18T00:23:03.008Z,35.40
2023-05-18T00:24:03.013Z,35.43
2023-05-18T00:25:03.081Z,35.40
2023-05-18T00:26:03.159Z,35.39
2023-05-18T00:27:03.191Z,35.40
2023-05-18T00:28:03.248Z,35.41
2023-05-18T00:29:03.317Z,35.40
2023-05-18T00:30:03.394Z,35.36
2023-05-18T00:31:03.458Z,35.41
2023-05-18T00:32:03.580Z,35.38
2023-05-18T00:33:03.701Z,35.36
2023-05-18T00:34:03.617Z,35.35
2023-05-18T00:35:03.731Z,35.41
2023-05-18T00:36:03.744Z,35.38
2023-05-18T00:37:03.823Z,35.36
2023-05-18T00:38:03.835Z,35.39
2023-05-18T00:39:03.921Z,35.36
2023-05-18T00:40:03.996Z,35.36
2023-05-18T00:41:04.049Z,35.35
2023-05-18T00:42:04.113Z,35.34
2023-05-18T00:43:04.183Z,35.43
2023-05-18T00:44:04.256Z,35.35
2023-05-18T00:45:04.291Z,35.34
2023-05-18T00:46:04.405Z,35.38
2023-05-18T00:47:04.437Z,35.36
2023-05-18T00:48:04.687Z,35.36
2023-05-18T00:49:04.569Z,35.36
2023-05-18T00:50:04.626Z,35.36
2023-05-18T00:51:04.664Z,35.36
2023-05-18T00:52:04.736Z,35.34
2023-05-18T00:53:04.787Z,35.34
2023-05-18T00:54:04.864Z,35.34
2023-05-18T00:55:04.922Z,35.33
2023-05-18T00:56:04.992Z,35.30
2023-05-18T00:57:05.083Z,35.31
2023-05-18T00:58:05.110Z,35.32
2023-05-18T00:59:05.174Z,35.35
2023-05-18T01:00:05.250Z,35.32
2023-05-18T01:01:05.324Z,35.31
2023-05-18T01:02:05.367Z,35.33
2023-05-18T01:03:05.621Z,35.31
2023-05-18T01:04:05.501Z,35.34
2023-05-18T01:05:05.560Z,35.28
2023-05-18T01:06:05.615Z,35.33
2023-05-18T01:07:05.674Z,35.33
2023-05-18T01:08:05.725Z,35.32
2023-05-18T01:09:05.794Z,35.30
2023-05-18T01:10:05.883Z,35.30
2023-05-18T01:11:05.989Z,35.32
2023-05-18T01:12:06.014Z,35.32
2023-05-18T01:13:06.068Z,35.25
2023-05-18T01:14:06.136Z,35.32
2023-05-18T01:15:06.198Z,35.29
2023-05-18T01:16:06.253Z,35.29
2023-05-18T01:17:06.347Z,35.29
2023-05-18T01:18:06.407Z,35.28
2023-05-18T01:19:06.485Z,35.28
2023-05-18T01:20:06.532Z,35.30
2023-05-18T01:21:06.570Z,35.29
2023-05-18T01:22:06.640Z,35.21
2023-05-18T01:23:06.696Z,35.25
2023-05-18T01:24:06.758Z,35.28
2023-05-18T01:25:06.830Z,35.24
2023-05-18T01:26:06.877Z,35.28
2023-05-18T01:27:06.949Z,35.25
2023-05-18T01:28:06.984Z,35.28
2023-05-18T01:29:07.042Z,35.25
2023-05-18T01:30:07.123Z,35.25
2023-05-18T01:31:07.172Z,35.22
2023-05-18T01:32:07.215Z,35.29
2023-05-18T01:33:07.315Z,35.24
2023-05-18T01:34:07.328Z,35.23
2023-05-18T01:35:07.376Z,35.24
2023-05-18T01:36:07.416Z,35.24
2023-05-18T01:37:07.465Z,35.22
2023-05-18T01:38:07.521Z,35.23
2023-05-18T01:39:07.566Z,35.25
2023-05-18T01:40:07.653Z,35.24
2023-05-18T01:41:07.713Z,35.22
2023-05-18T01:42:07.732Z,35.21
2023-05-18T01:43:07.763Z,35.25
2023-05-18T01:44:07.812Z,35.19
2023-05-18T01:45:07.868Z,35.20
2023-05-18T01:46:08.031Z,35.17
2023-05-18T01:47:07.959Z,35.24
2023-05-18T01:48:08.045Z,35.20
2023-05-18T01:49:08.073Z,35.19
2023-05-18T01:50:08.124Z,35.21
2023-05-18T01:51:08.185Z,35.22
2023-05-18T01:52:08.237Z,35.24
2023-05-18T01:53:08.304Z,35.21
2023-05-18T01:54:08.394Z,35.15
2023-05-18T01:55:08.443Z,35.19
2023-05-18T01:56:08.467Z,35.19
2023-05-18T01:57:09.369Z,35.21
2023-05-18T01:58:08.588Z,35.19
2023-05-18T01:59:08.654Z,35.22
2023-05-18T02:00:08.720Z,35.22
2023-05-18T02:01:08.750Z,35.20
2023-05-18T02:02:08.856Z,35.17
2023-05-18T02:03:09.011Z,35.19
2023-05-18T02:04:09.074Z,35.17
2023-05-18T02:05:08.956Z,35.20
2023-05-18T02:06:09.000Z,35.22
2023-05-18T02:07:09.030Z,35.16
2023-05-18T02:08:09.083Z,35.19
2023-05-18T02:09:09.142Z,35.19
2023-05-18T02:10:09.123Z,35.17
2023-05-18T02:11:09.150Z,35.20
2023-05-18T02:12:09.197Z,35.16
2023-05-18T02:13:09.209Z,35.16
2023-05-18T02:14:09.246Z,35.16
2023-05-18T02:15:09.262Z,35.13
2023-05-18T02:16:09.323Z,35.19
2023-05-18T02:17:09.365Z,35.13
2023-05-18T02:18:09.407Z,35.15
2023-05-18T02:19:09.407Z,35.17
2023-05-18T02:20:09.428Z,35.13
2023-05-18T02:21:09.479Z,35.12
2023-05-18T02:22:09.494Z,35.14
2023-05-18T02:23:09.517Z,35.11
2023-05-18T02:24:09.530Z,35.13
2023-05-18T02:25:09.606Z,35.05
2023-05-18T02:26:09.627Z,35.12
2023-05-18T02:27:09.651Z,35.10
2023-05-18T02:28:09.683Z,35.13
2023-05-18T02:29:09.733Z,35.14
2023-05-18T02:30:09.766Z,35.10
2023-05-18T02:31:09.820Z,35.14
2023-05-18T02:32:09.972Z,35.14
2023-05-18T02:33:09.930Z,35.10
2023-05-18T02:34:09.929Z,35.10
2023-05-18T02:35:09.934Z,35.10
2023-05-18T02:36:09.926Z,35.13
2023-05-18T02:37:09.977Z,35.06
2023-05-18T02:38:10.016Z,35.12
2023-05-18T02:39:10.030Z,35.09
2023-05-18T02:40:10.039Z,35.08
2023-05-18T02:41:10.068Z,35.10
2023-05-18T02:42:10.116Z,35.12
2023-05-18T02:43:10.147Z,35.06
2023-05-18T02:44:10.167Z,35.09
2023-05-18T02:45:10.182Z,35.10
2023-05-18T02:46:10.314Z,35.06
2023-05-18T02:47:10.249Z,35.09
2023-05-18T02:48:10.285Z,35.08
2023-05-18T02:49:10.298Z,35.05
2023-05-18T02:50:10.318Z,35.10
2023-05-18T02:51:10.348Z,35.06
2023-05-18T02:52:10.386Z,35.06
2023-05-18T02:53:10.425Z,35.08
2023-05-18T02:54:10.458Z,35.08
2023-05-18T02:55:10.480Z,35.06
2023-05-18T02:56:10.519Z,35.05
2023-05-18T02:57:10.519Z,35.03
2023-05-18T02:58:10.558Z,35.00
2023-05-18T02:59:10.618Z,35.04
2023-05-18T03:00:10.633Z,35.06
2023-05-18T03:01:10.724Z,35.05
2023-05-18T03:02:10.737Z,35.05
2023-05-18T03:03:10.940Z,35.10
2023-05-18T03:04:10.764Z,35.05
2023-05-18T03:05:10.794Z,35.12
2023-05-18T03:06:10.807Z,35.03
2023-05-18T03:07:10.806Z,35.03
2023-05-18T03:08:10.854Z,35.05
2023-05-18T03:09:10.845Z,35.05
2023-05-18T03:10:10.860Z,35.04
2023-05-18T03:11:10.872Z,34.98
2023-05-18T03:12:10.881Z,35.03
2023-05-18T03:13:10.915Z,35.01
2023-05-18T03:14:10.920Z,35.01
2023-05-18T03:15:10.941Z,35.01
2023-05-18T03:16:10.976Z,35.03
2023-05-18T03:17:11.045Z,34.98
2023-05-18T03:18:11.134Z,35.03
2023-05-18T03:19:11.007Z,35.01
2023-05-18T03:20:11.014Z,35.05
2023-05-18T03:21:11.057Z,35.01
2023-05-18T03:22:11.086Z,35.01
2023-05-18T03:23:11.101Z,34.97
2023-05-18T03:24:11.105Z,34.97
2023-05-18T03:25:11.118Z,34.99
2023-05-18T03:26:11.143Z,34.97
2023-05-18T03:27:11.155Z,34.99
2023-05-18T03:28:11.183Z,35.02
2023-05-18T03:29:11.204Z,34.98
2023-05-18T03:30:11.218Z,34.99
2023-05-18T03:31:11.343Z,34.96
2023-05-18T03:32:11.225Z,34.97
2023-05-18T03:33:11.295Z,34.93
2023-05-18T03:34:11.238Z,34.98
2023-05-18T03:35:11.260Z,34.94
2023-05-18T03:36:11.293Z,35.01
2023-05-18T03:37:11.408Z,34.97
2023-05-18T03:38:11.285Z,34.97
2023-05-18T03:39:11.332Z,34.94
2023-05-18T03:40:11.350Z,34.93
2023-05-18T03:41:11.336Z,34.99
2023-05-18T03:42:11.414Z,34.93
2023-05-18T03:43:11.374Z,34.93
2023-05-18T03:44:11.383Z,34.93
2023-05-18T03:45:11.388Z,34.90
2023-05-18T03:46:11.477Z,34.95
2023-05-18T03:47:11.422Z,34.97
2023-05-18T03:48:11.469Z,34.97
2023-05-18T03:49:11.448Z,34.94
2023-05-18T03:50:11.631Z,34.91
2023-05-18T03:51:11.481Z,34.97
2023-05-18T03:52:11.501Z,34.95
2023-05-18T03:53:11.505Z,34.87
2023-05-18T03:54:11.536Z,34.94
2023-05-18T03:55:11.536Z,34.97
2023-05-18T03:56:11.518Z,34.94
2023-05-18T03:57:11.564Z,34.89
2023-05-18T03:58:11.554Z,34.92
2023-05-18T03:59:11.604Z,34.97
2023-05-18T04:00:11.612Z,34.95
2023-05-18T04:01:11.621Z,34.91
2023-05-18T04:02:11.696Z,34.89
2023-05-18T04:03:11.774Z,34.89
2023-05-18T04:04:11.728Z,34.90
2023-05-18T04:05:11.695Z,34.89
2023-05-18T04:06:11.706Z,34.94
2023-05-18T04:07:13.120Z,34.90
2023-05-18T04:08:11.728Z,34.90
2023-05-18T04:09:11.712Z,34.89
2023-05-18T04:10:11.728Z,34.89
2023-05-18T04:11:11.696Z,34.90
2023-05-18T04:12:11.693Z,34.86
2023-05-18T04:13:11.691Z,34.89
2023-05-18T04:14:11.695Z,34.90
2023-05-18T04:15:11.694Z,34.84
2023-05-18T04:16:11.704Z,34.84
2023-05-18T04:17:11.664Z,34.91
2023-05-18T04:18:11.673Z,34.87
2023-05-18T04:19:11.726Z,34.87
2023-05-18T04:20:11.711Z,34.86
2023-05-18T04:21:11.624Z,34.87
2023-05-18T04:22:11.628Z,34.85
2023-05-18T04:23:11.625Z,34.89
2023-05-18T04:24:11.607Z,34.87
2023-05-18T04:25:11.609Z,34.86
2023-05-18T04:26:11.589Z,34.85
2023-05-18T04:27:11.594Z,34.85
2023-05-18T04:28:11.583Z,34.84
2023-05-18T04:29:11.587Z,34.81
2023-05-18T04:30:11.648Z,34.82
2023-05-18T04:31:11.558Z,34.84
2023-05-18T04:32:11.656Z,34.81
2023-05-18T04:33:11.584Z,34.80
2023-05-18T04:34:11.530Z,34.82
2023-05-18T04:35:11.665Z,34.84
2023-05-18T04:36:11.517Z,34.84
2023-05-18T04:37:11.520Z,34.82
2023-05-18T04:38:11.514Z,34.80
2023-05-18T04:39:11.503Z,34.84
2023-05-18T04:40:11.510Z,34.85
2023-05-18T04:41:11.476Z,34.82
2023-05-18T04:42:11.470Z,34.84
2023-05-18T04:43:11.471Z,34.81
2023-05-18T04:44:11.470Z,34.81
2023-05-18T04:45:11.448Z,34.79
2023-05-18T04:46:11.453Z,34.84
2023-05-18T04:47:11.441Z,34.80
2023-05-18T04:48:11.507Z,34.80
2023-05-18T04:49:11.426Z,34.75
2023-05-18T04:50:11.415Z,34.80
2023-05-18T04:51:11.413Z,34.85
2023-05-18T04:52:11.425Z,34.81
2023-05-18T04:53:11.391Z,34.80
2023-05-18T04:54:11.410Z,34.75
2023-05-18T04:55:11.405Z,34.74
2023-05-18T04:56:11.380Z,34.77
2023-05-18T04:57:11.361Z,34.78
2023-05-18T04:58:11.364Z,34.74
2023-05-18T04:59:11.371Z,34.76
2023-05-18T05:00:11.363Z,34.77
2023-05-18T05:01:11.381Z,34.78
2023-05-18T05:02:11.347Z,34.74
2023-05-18T05:03:11.482Z,34.76
2023-05-18T05:04:11.314Z,34.73
2023-05-18T05:05:11.323Z,34.72
2023-05-18T05:06:11.305Z,34.75
2023-05-18T05:07:11.295Z,34.73
2023-05-18T05:08:11.310Z,34.69
2023-05-18T05:09:11.305Z,34.74
2023-05-18T05:10:11.269Z,34.70
2023-05-18T05:11:11.261Z,34.74
2023-05-18T05:12:11.250Z,34.70
2023-05-18T05:13:11.242Z,34.70
2023-05-18T05:14:11.254Z,34.72
2023-05-18T05:15:11.238Z,34.71
2023-05-18T05:16:11.231Z,34.70
2023-05-18T05:17:11.221Z,34.68
2023-05-18T05:18:11.238Z,34.68
2023-05-18T05:19:11.219Z,34.65
2023-05-18T05:20:11.231Z,34.65
2023-05-18T05:21:11.191Z,34.69
2023-05-18T05:22:11.184Z,34.64
2023-05-18T05:23:11.219Z,34.67
2023-05-18T05:24:11.171Z,34.70
2023-05-18T05:25:11.168Z,34.64
2023-05-18T05:26:11.178Z,34.68
2023-05-18T05:27:11.144Z,34.66
2023-05-18T05:28:11.149Z,34.64
2023-05-18T05:29:11.130Z,34.65
2023-05-18T05:30:11.173Z,34.67
2023-05-18T05:31:11.190Z,34.67
2023-05-18T05:32:11.121Z,34.63
2023-05-18T05:33:11.121Z,34.63
2023-05-18T05:34:11.094Z,34.61
2023-05-18T05:35:11.115Z,34.65
2023-05-18T05:36:11.105Z,34.60
2023-05-18T05:37:11.143Z,34.60
2023-05-18T05:38:11.150Z,34.63
2023-05-18T05:39:11.174Z,34.58
2023-05-18T05:40:11.240Z,34.62
2023-05-18T05:41:11.221Z,34.60
2023-05-18T05:42:11.275Z,34.55
2023-05-18T05:43:11.290Z,34.58
2023-05-18T05:44:11.315Z,34.57
2023-05-18T05:45:11.399Z,34.51
2023-05-18T05:46:11.354Z,34.55
2023-05-18T05:47:11.433Z,34.56
2023-05-18T05:48:13.501Z,34.55
2023-05-18T05:49:11.510Z,34.58
2023-05-18T05:50:11.541Z,34.54
2023-05-18T05:51:11.561Z,34.58
2023-05-18T05:52:11.592Z,34.55
2023-05-18T05:53:11.609Z,34.52
2023-05-18T05:54:11.649Z,34.53
2023-05-18T05:55:11.652Z,34.51
2023-05-18T05:56:11.685Z,34.52
2023-05-18T05:57:11.712Z,34.50
2023-05-18T05:58:11.737Z,34.53
2023-05-18T05:59:11.774Z,34.49
2023-05-18T06:00:11.805Z,34.54
2023-05-18T06:01:11.836Z,34.49
2023-05-18T06:02:11.936Z,34.50
2023-05-18T06:03:11.927Z,34.46
2023-05-18T06:04:11.960Z,34.50
2023-05-18T06:05:11.971Z,34.47
2023-05-18T06:06:11.985Z,34.49
2023-05-18T06:07:12.029Z,34.50
2023-05-18T06:08:12.068Z,34.45
2023-05-18T06:09:12.094Z,34.46
2023-05-18T06:10:12.168Z,34.45
2023-05-18T06:11:12.204Z,34.48
2023-05-18T06:12:12.236Z,34.45
2023-05-18T06:13:12.276Z,34.48
2023-05-18T06:14:12.327Z,34.49
2023-05-18T06:15:12.398Z,34.41
2023-05-18T06:16:12.421Z,34.43
2023-05-18T06:17:12.438Z,34.45
2023-05-18T06:18:13.771Z,34.40
2023-05-18T06:19:12.598Z,34.42
2023-05-18T06:20:12.603Z,34.42
2023-05-18T06:21:12.658Z,34.37
2023-05-18T06:22:12.678Z,34.38
2023-05-18T06:23:12.717Z,34.44
2023-05-18T06:24:12.766Z,34.40
2023-05-18T06:25:12.804Z,34.43
2023-05-18T06:26:12.867Z,34.40
2023-05-18T06:27:12.926Z,34.41
2023-05-18T06:28:12.950Z,34.41
2023-05-18T06:29:13.024Z,34.38
2023-05-18T06:30:13.064Z,34.36
2023-05-18T06:31:13.111Z,34.36
2023-05-18T06:32:13.153Z,34.41
2023-05-18T06:33:13.201Z,34.37
2023-05-18T06:34:13.253Z,34.33
2023-05-18T06:35:13.297Z,34.36
2023-05-18T06:36:13.363Z,34.35
2023-05-18T06:37:13.388Z,34.35
2023-05-18T06:38:13.450Z,34.36
2023-05-18T06:39:13.493Z,34.32
2023-05-18T06:40:13.577Z,34.37
2023-05-18T06:41:13.582Z,34.32
2023-05-18T06:42:13.632Z,34.35
2023-05-18T06:43:13.658Z,34.35
2023-05-18T06:44:13.675Z,34.32
2023-05-18T06:45:13.726Z,34.37
2023-05-18T06:46:13.786Z,34.31
2023-05-18T06:47:13.771Z,34.30
2023-05-18T06:48:13.818Z,34.33
2023-05-18T06:49:13.868Z,34.34
2023-05-18T06:50:13.883Z,34.34
2023-05-18T06:51:13.929Z,34.31
2023-05-18T06:52:13.985Z,34.31
2023-05-18T06:53:13.999Z,34.33
2023-05-18T06:54:14.060Z,34.28
2023-05-18T06:55:14.082Z,34.32
2023-05-18T06:56:14.101Z,34.26
2023-05-18T06:57:14.151Z,34.31
2023-05-18T06:58:14.175Z,34.27
2023-05-18T06:59:14.208Z,34.28
2023-05-18T07:00:14.279Z,34.28
2023-05-18T07:01:14.371Z,34.27
2023-05-18T07:02:14.318Z,34.27
2023-05-18T07:03:14.422Z,34.23
2023-05-18T07:04:14.462Z,34.27
2023-05-18T07:05:14.422Z,34.25
2023-05-18T07:06:14.447Z,34.25
2023-05-18T07:07:14.479Z,34.30
2023-05-18T07:08:14.546Z,34.23
2023-05-18T07:09:14.564Z,34.27
2023-05-18T07:10:14.605Z,34.23
2023-05-18T07:11:14.641Z,34.22
2023-05-18T07:12:14.682Z,34.26
2023-05-18T07:13:14.769Z,34.25
2023-05-18T07:14:14.828Z,34.26
2023-05-18T07:15:14.857Z,34.25
2023-05-18T07:16:14.995Z,34.23
2023-05-18T07:17:14.955Z,34.24
2023-05-18T07:18:15.118Z,34.27
2023-05-18T07:19:15.188Z,34.25
2023-05-18T07:20:15.154Z,34.25
2023-05-18T07:21:15.210Z,34.18
2023-05-18T07:22:15.256Z,34.21
2023-05-18T07:23:15.281Z,34.22
2023-05-18T07:24:15.330Z,34.21
2023-05-18T07:25:15.392Z,34.18
2023-05-18T07:26:15.415Z,34.18
2023-05-18T07:27:15.488Z,34.21
2023-05-18T07:28:15.533Z,34.14
2023-05-18T07:29:15.602Z,34.17
2023-05-18T07:30:15.662Z,34.21
2023-05-18T07:31:15.747Z,34.18
2023-05-18T07:32:15.784Z,34.17
2023-05-18T07:33:15.888Z,34.14
2023-05-18T07:34:15.933Z,34.17
2023-05-18T07:35:15.974Z,34.14
2023-05-18T07:36:16.033Z,34.17
2023-05-18T07:37:16.089Z,34.14
2023-05-18T07:38:16.150Z,34.16
2023-05-18T07:39:18.060Z,34.12
2023-05-18T07:40:16.204Z,34.14
2023-05-18T07:41:16.165Z,34.14
2023-05-18T07:42:16.181Z,34.08
2023-05-18T07:43:16.190Z,34.09
2023-05-18T07:44:16.179Z,34.11
2023-05-18T07:45:16.265Z,34.09
2023-05-18T07:46:16.155Z,34.08
2023-05-18T07:47:16.129Z,34.10
2023-05-18T07:48:16.136Z,34.02
2023-05-18T07:49:16.150Z,34.09
2023-05-18T07:50:16.117Z,34.02
2023-05-18T07:51:16.122Z,34.07
2023-05-18T07:52:16.116Z,34.00
2023-05-18T07:53:16.167Z,34.04
2023-05-18T07:54:16.087Z,34.06
2023-05-18T07:55:16.128Z,34.04
2023-05-18T07:56:16.078Z,34.06
2023-05-18T07:57:16.069Z,34.02
2023-05-18T07:58:16.076Z,34.00
2023-05-18T07:59:16.056Z,33.98
2023-05-18T08:00:16.053Z,33.99
2023-05-18T08:01:16.057Z,33.97
2023-05-18T08:02:16.114Z,33.97
2023-05-18T08:03:16.106Z,33.97
2023-05-18T08:04:16.157Z,33.97
2023-05-18T08:05:16.010Z,33.95
2023-05-18T08:06:16.048Z,33.99
2023-05-18T08:07:16.011Z,33.95
2023-05-18T08:08:16.076Z,33.93
2023-05-18T08:09:16.036Z,33.94
2023-05-18T08:10:16.007Z,33.93
2023-05-18T08:11:16.010Z,33.90
2023-05-18T08:12:16.037Z,33.94
2023-05-18T08:13:15.949Z,33.94
2023-05-18T08:14:15.953Z,33.90
2023-05-18T08:15:15.968Z,33.92
2023-05-18T08:16:16.033Z,33.88
2023-05-18T08:17:16.056Z,33.94
2023-05-18T08:18:16.203Z,33.90
2023-05-18T08:19:16.286Z,33.89
2023-05-18T08:20:16.256Z,33.92
2023-05-18T08:21:16.281Z,33.89
2023-05-18T08:22:16.364Z,33.93
2023-05-18T08:23:16.419Z,33.92
2023-05-18T08:24:16.475Z,33.89
2023-05-18T08:25:16.589Z,33.84
2023-05-18T08:26:16.596Z,33.90
2023-05-18T08:27:16.686Z,33.88
2023-05-18T08:28:16.735Z,33.85
2023-05-18T08:29:16.807Z,33.87
2023-05-18T08:30:16.877Z,33.85
2023-05-18T08:31:16.967Z,33.85
2023-05-18T08:32:17.095Z,33.89
2023-05-18T08:33:17.070Z,33.89
2023-05-18T08:34:17.113Z,33.87
2023-05-18T08:35:17.170Z,33.85
2023-05-18T08:36:17.234Z,33.83
2023-05-18T08:37:17.298Z,33.80
2023-05-18T08:38:17.368Z,33.82
2023-05-18T08:39:17.433Z,33.80
2023-05-18T08:40:17.501Z,33.80
2023-05-18T08:41:17.572Z,33.82
2023-05-18T08:42:17.610Z,33.85
2023-05-18T08:43:17.674Z,33.80
2023-05-18T08:44:17.731Z,33.80
2023-05-18T08:45:17.823Z,33.75
2023-05-18T08:46:17.877Z,33.82
2023-05-18T08:47:17.915Z,33.75
2023-05-18T08:48:18.017Z,33.77
2023-05-18T08:49:18.036Z,33.72
2023-05-18T08:50:18.096Z,33.78
2023-05-18T08:51:18.172Z,33.79
2023-05-18T08:52:18.229Z,33.78
2023-05-18T08:53:18.309Z,33.73
2023-05-18T08:54:18.348Z,33.71
2023-05-18T08:55:18.400Z,33.73
2023-05-18T08:56:18.459Z,33.71
2023-05-18T08:57:18.541Z,33.71
2023-05-18T08:58:18.593Z,33.74
2023-05-18T08:59:18.681Z,33.71
2023-05-18T09:00:18.761Z,33.73
2023-05-18T09:01:18.851Z,33.69
2023-05-18T09:02:18.846Z,33.72
2023-05-18T09:03:19.000Z,33.69
2023-05-18T09:04:18.984Z,33.68
2023-05-18T09:05:19.102Z,33.69
2023-05-18T09:06:19.106Z,33.73
2023-05-18T09:07:19.182Z,33.71
2023-05-18T09:08:19.218Z,33.72
2023-05-18T09:09:19.289Z,33.70
2023-05-18T09:10:19.382Z,33.69
2023-05-18T09:11:19.473Z,33.68
2023-05-18T09:12:19.478Z,33.68
2023-05-18T09:13:19.541Z,33.69
2023-05-18T09:14:19.639Z,33.64
2023-05-18T09:15:19.697Z,33.65
2023-05-18T09:16:19.782Z,33.66
2023-05-18T09:17:19.821Z,33.65
2023-05-18T09:18:22.213Z,33.61
2023-05-18T09:19:20.026Z,33.59
2023-05-18T09:20:19.869Z,33.64
2023-05-18T09:21:19.847Z,33.58
2023-05-18T09:22:19.871Z,33.61
2023-05-18T09:23:19.832Z,33.59
2023-05-18T09:24:20.580Z,33.61
2023-05-18T09:25:19.825Z,33.56
2023-05-18T09:26:19.809Z,33.59
2023-05-18T09:27:19.802Z,33.56
2023-05-18T09:28:19.784Z,33.58
2023-05-18T09:29:19.799Z,33.59
2023-05-18T09:30:19.816Z,33.60
2023-05-18T09:31:19.871Z,33.63
2023-05-18T09:32:19.896Z,33.64
2023-05-18T09:33:20.037Z,33.55
2023-05-18T09:34:19.996Z,33.62
2023-05-18T09:35:20.119Z,33.64
2023-05-18T09:36:20.125Z,33.66
2023-05-18T09:37:20.207Z,33.66
2023-05-18T09:38:20.250Z,33.62
2023-05-18T09:39:20.324Z,33.63
2023-05-18T09:40:20.470Z,33.60
2023-05-18T09:41:20.455Z,33.59
2023-05-18T09:42:21.749Z,33.62
2023-05-18T09:43:20.499Z,33.60
2023-05-18T09:44:20.536Z,33.63
2023-05-18T09:45:20.560Z,33.62
2023-05-18T09:46:20.493Z,33.60
2023-05-18T09:47:20.471Z,33.63
2023-05-18T09:48:21.615Z,33.63
2023-05-18T09:49:20.472Z,33.64
2023-05-18T09:50:20.521Z,33.64
2023-05-18T09:51:20.516Z,33.68
2023-05-18T09:52:20.542Z,33.66
2023-05-18T09:53:20.588Z,33.66
2023-05-18T09:54:22.409Z,33.62
2023-05-18T09:55:20.741Z,33.60
2023-05-18T09:56:20.603Z,33.61
2023-05-18T09:57:20.598Z,33.57
2023-05-18T09:58:20.594Z,33.59
2023-05-18T09:59:20.599Z,33.57
2023-05-18T10:00:21.696Z,33.54
2023-05-18T10:01:20.641Z,33.59
2023-05-18T10:02:20.578Z,33.60
2023-05-18T10:03:20.581Z,33.57
2023-05-18T10:04:20.653Z,33.61
2023-05-18T10:05:20.798Z,33.60
2023-05-18T10:06:20.774Z,33.60
2023-05-18T10:07:20.841Z,33.58
2023-05-18T10:08:20.887Z,33.57
2023-05-18T10:09:20.955Z,33.54
2023-05-18T10:10:21.016Z,33.61
2023-05-18T10:11:21.092Z,33.50
2023-05-18T10:12:21.140Z,33.56
2023-05-18T10:13:21.193Z,33.60
2023-05-18T10:14:21.267Z,33.56
2023-05-18T10:15:21.379Z,33.51
2023-05-18T10:16:21.411Z,33.57
2023-05-18T10:17:21.629Z,33.56
2023-05-18T10:18:21.577Z,33.56
2023-05-18T10:19:21.645Z,33.57
2023-05-18T10:20:21.697Z,33.54
2023-05-18T10:21:21.722Z,33.52
2023-05-18T10:22:21.808Z,33.53
2023-05-18T10:23:21.864Z,33.45
2023-05-18T10:24:21.915Z,33.50
2023-05-18T10:25:22.002Z,33.50
2023-05-18T10:26:22.031Z,33.52
2023-05-18T10:27:22.111Z,33.52
2023-05-18T10:28:22.169Z,33.54
2023-05-18T10:29:22.256Z,33.46
2023-05-18T10:30:22.320Z,33.49
2023-05-18T10:31:22.435Z,33.50
2023-05-18T10:32:22.498Z,33.46
2023-05-18T10:33:29.077Z,33.47
2023-05-18T10:34:23.496Z,33.46
2023-05-18T10:35:22.494Z,33.49
2023-05-18T10:36:22.479Z,33.46
2023-05-18T10:37:22.457Z,33.48
2023-05-18T10:38:22.460Z,33.44
2023-05-18T10:39:22.446Z,33.46
2023-05-18T10:40:22.477Z,33.44
2023-05-18T10:41:22.451Z,33.42
2023-05-18T10:42:22.433Z,33.42
2023-05-18T10:43:23.980Z,33.43
2023-05-18T10:44:22.589Z,33.43
2023-05-18T10:45:22.665Z,33.46
2023-05-18T10:46:22.728Z,33.48
2023-05-18T10:47:22.978Z,33.50
2023-05-18T10:48:22.853Z,33.50
2023-05-18T10:49:22.874Z,33.49
2023-05-18T10:50:22.951Z,33.46
2023-05-18T10:51:23.016Z,33.49
2023-05-18T10:52:23.079Z,33.47
2023-05-18T10:53:23.098Z,33.43
2023-05-18T10:54:23.172Z,33.50
2023-05-18T10:55:23.277Z,33.49
2023-05-18T10:56:23.297Z,33.47
2023-05-18T10:57:23.368Z,33.46
2023-05-18T10:58:23.435Z,33.43
2023-05-18T10:59:23.499Z,33.43
2023-05-18T11:00:23.593Z,33.46
2023-05-18T11:01:23.635Z,33.46
2023-05-18T11:02:23.767Z,33.47
2023-05-18T11:03:23.752Z,33.44
2023-05-18T11:04:23.840Z,33.44
2023-05-18T11:05:23.959Z,33.46
2023-05-18T11:06:23.937Z,33.47
2023-05-18T11:07:23.985Z,33.44
2023-05-18T11:08:24.038Z,33.46
2023-05-18T11:09:24.108Z,33.44
2023-05-18T11:10:24.200Z,33.45
2023-05-18T11:11:24.249Z,33.46
2023-05-18T11:12:24.277Z,33.49
2023-05-18T11:13:24.326Z,33.46
2023-05-18T11:14:24.398Z,33.49
2023-05-18T11:15:24.468Z,33.49
2023-05-18T11:16:24.567Z,33.44
2023-05-18T11:17:24.580Z,33.46
2023-05-18T11:18:24.643Z,33.47
2023-05-18T11:19:24.831Z,33.46
2023-05-18T11:20:24.802Z,33.46
2023-05-18T11:21:24.817Z,33.46
2023-05-18T11:22:24.896Z,33.44
2023-05-18T11:23:24.939Z,33.46
2023-05-18T11:24:25.012Z,33.40
2023-05-18T11:25:25.080Z,33.48
2023-05-18T11:26:25.132Z,33.43
2023-05-18T11:27:25.194Z,33.43
2023-05-18T11:28:25.236Z,33.40
2023-05-18T11:29:25.306Z,33.39
2023-05-18T11:30:25.381Z,33.39
2023-05-18T11:31:25.426Z,33.36
2023-05-18T11:32:29.877Z,33.42
2023-05-18T11:33:26.547Z,33.39
2023-05-18T11:34:25.498Z,33.39
2023-05-18T11:35:25.497Z,33.42
2023-05-18T11:36:25.461Z,33.40
2023-05-18T11:37:25.456Z,33.41
2023-05-18T11:38:25.473Z,33.46
2023-05-18T11:39:25.439Z,33.38
2023-05-18T11:40:25.454Z,33.43
2023-05-18T11:41:25.425Z,33.35
2023-05-18T11:42:25.447Z,33.42
2023-05-18T11:43:25.522Z,33.44
2023-05-18T11:44:25.583Z,33.33
2023-05-18T11:45:25.656Z,33.39
2023-05-18T11:46:25.730Z,33.32
2023-05-18T11:47:25.795Z,33.41
2023-05-18T11:48:25.910Z,33.42
2023-05-18T11:49:25.904Z,33.39
2023-05-18T11:50:25.986Z,33.39
2023-05-18T11:51:26.017Z,33.36
2023-05-18T11:52:26.085Z,33.43
2023-05-18T11:53:26.152Z,33.40
2023-05-18T11:54:26.190Z,33.40
2023-05-18T11:55:26.251Z,33.38
2023-05-18T11:56:26.322Z,33.36
2023-05-18T11:57:26.379Z,33.38
2023-05-18T11:58:26.458Z,33.31
2023-05-18T11:59:26.506Z,33.38
2023-05-18T12:00:26.571Z,33.31
2023-05-18T12:01:26.620Z,33.39
2023-05-18T12:02:26.811Z,33.31
2023-05-18T12:03:26.924Z,33.33
2023-05-18T12:04:26.839Z,33.35
2023-05-18T12:05:26.946Z,33.31
2023-05-18T12:06:26.958Z,33.35
2023-05-18T12:07:27.136Z,33.31
2023-05-18T12:08:27.070Z,33.38
2023-05-18T12:09:27.141Z,33.33
2023-05-18T12:10:27.240Z,33.32
2023-05-18T12:11:27.268Z,33.29
2023-05-18T12:12:27.337Z,33.38
2023-05-18T12:13:27.395Z,33.29
2023-05-18T12:14:27.456Z,33.29
2023-05-18T12:15:27.530Z,33.25
2023-05-18T12:16:27.627Z,33.29
2023-05-18T12:17:27.713Z,33.26
2023-05-18T12:18:27.705Z,33.28
2023-05-18T12:19:27.866Z,33.24
2023-05-18T12:20:27.854Z,33.25
2023-05-18T12:21:27.907Z,33.24
2023-05-18T12:22:27.976Z,33.22
2023-05-18T12:23:28.049Z,33.19
2023-05-18T12:24:28.098Z,33.25
2023-05-18T12:25:28.348Z,33.25
2023-05-18T12:26:28.250Z,33.22
2023-05-18T12:27:28.280Z,33.21
2023-05-18T12:28:28.350Z,33.22
2023-05-18T12:29:28.409Z,33.21
2023-05-18T12:30:28.483Z,33.22
2023-05-18T12:31:28.614Z,33.18
2023-05-18T12:32:28.628Z,33.29
2023-05-18T12:33:28.665Z,33.24
2023-05-18T12:34:28.725Z,33.24
2023-05-18T12:35:29.030Z,33.19
2023-05-18T12:36:28.850Z,33.22
2023-05-18T12:37:38.028Z,33.18
2023-05-18T12:38:29.912Z,33.22
2023-05-18T12:39:29.195Z,33.25
2023-05-18T12:40:28.936Z,33.25
2023-05-18T12:41:28.890Z,33.25
2023-05-18T12:42:28.885Z,33.22
2023-05-18T12:43:28.868Z,33.24
2023-05-18T12:44:28.855Z,33.24
2023-05-18T12:45:28.961Z,33.16
2023-05-18T12:46:28.952Z,33.19
2023-05-18T12:47:28.927Z,33.26
2023-05-18T12:48:28.947Z,33.21
2023-05-18T12:49:28.995Z,33.24
2023-05-18T12:50:29.060Z,33.24
2023-05-18T12:51:29.118Z,33.24
2023-05-18T12:52:29.191Z,33.27